Terminal Aerodrome Forecast
Issued by NWS Amarillo, TX

Home | Current Version | Previous Version | Text Only | Print | Product List | Glossary On
Versions: 1 2 3 4 5 6 7 8 9 10 11 12 13 14 15 16
000
FTUS44 KAMA 041100
TAFGUY
TAF
KGUY 041127Z 0412/0512 24006KT P6SM SCT100 OVC300
     FM041500 17011KT P6SM SCT100 BKN300
     FM041900 17015G24KT P6SM VCSH SCT035 BKN100
     FM042300 17012KT 4SM TSRA OVC020CB
     FM050300 16010KT 5SM SHRA VCTS OVC015CB
     FM050600 14010KT 5SM SHRA OVC010=

USA.gov is the U.S. government's official web portal to all federal, state and local government web resources and services.